Time;durP1;ratioP1;P1;durP2;ratioP2;P2;SDS_P1;SDS_P2;PMS_P1;PMS_P2;Temp;Humidity;BMP_temperature;BMP_pressure;BME280_temperature;BME280_humidity;BME280_pressure;Samples;Min_cycle;Max_cycle;Signal;HPM_P1;HPM_P2
2023/03/09 00:01:28;;;;;;;0.10;0.10;;;7.30;99.90;;;;;;5030803;28;20182;-85
2023/03/09 00:03:54;;;;;;;0.10;0.10;;;7.20;99.90;;;;;;5030757;28;20645;-85
2023/03/09 00:06:22;;;;;;;0.10;0.10;;;7.20;99.90;;;;;;5013611;28;20258;-85
2023/03/09 00:08:47;;;;;;;0.10;0.10;;;7.20;99.90;;;;;;5013968;28;20231;-85
2023/03/09 00:11:15;;;;;;;0.10;0.10;;;7.10;99.90;;;;;;5030939;28;20718;-85
2023/03/09 00:13:40;;;;;;;0.10;0.10;;;7.00;99.90;;;;;;5013587;28;20190;-85
2023/03/09 00:16:30;;;;;;;0.10;0.10;;;7.10;99.90;;;;;;5029936;28;20194;-86
2023/03/09 00:18:57;;;;;;;0.10;0.10;;;7.10;99.90;;;;;;5012762;28;20200;-85
2023/03/09 00:21:34;;;;;;;0.10;0.10;;;7.10;99.90;;;;;;5014057;28;20193;-85
2023/03/09 00:24:11;;;;;;;0.10;0.10;;;7.00;99.90;;;;;;5013487;28;22180;-85
2023/03/09 00:26:39;;;;;;;0.10;0.10;;;7.10;99.90;;;;;;5029773;28;20824;-86
2023/03/09 00:29:07;;;;;;;0.10;0.10;;;7.10;99.90;;;;;;5030987;28;20271;-84
2023/03/09 00:31:32;;;;;;;0.10;0.10;;;7.20;99.90;;;;;;5015234;28;20228;-84
2023/03/09 00:33:58;;;;;;;0.10;0.10;;;7.10;99.90;;;;;;5013118;28;20194;-85
2023/03/09 00:36:24;;;;;;;0.10;0.10;;;7.10;99.90;;;;;;5012661;28;20202;-85
2023/03/09 00:38:54;;;;;;;0.10;0.10;;;7.00;99.90;;;;;;5031483;28;20215;-85
2023/03/09 00:41:22;;;;;;;0.00;0.00;;;7.00;99.90;;;;;;5030945;28;20216;-85
2023/03/09 00:43:48;;;;;;;0.10;0.10;;;7.00;99.90;;;;;;5015071;28;20185;-85
2023/03/09 00:46:14;;;;;;;0.10;0.10;;;7.10;99.90;;;;;;5010832;28;20209;-85
2023/03/09 00:48:40;;;;;;;0.10;0.10;;;7.10;99.90;;;;;;5024635;28;20188;-85
2023/03/09 00:51:06;;;;;;;0.10;0.10;;;7.20;99.90;;;;;;5015241;28;20217;-85
2023/03/09 00:53:32;;;;;;;0.10;0.10;;;7.20;99.90;;;;;;5020934;28;20200;-85
2023/03/09 00:56:03;;;;;;;0.10;0.10;;;7.30;99.90;;;;;;5018306;28;20197;-85
2023/03/09 00:58:28;;;;;;;0.10;0.10;;;7.40;99.90;;;;;;5018341;28;20521;-85
2023/03/09 01:00:54;;;;;;;0.10;0.10;;;7.50;99.90;;;;;;5036494;28;20410;-85
2023/03/09 01:03:19;;;;;;;0.10;0.10;;;7.50;99.90;;;;;;5019752;28;20200;-85
2023/03/09 01:05:45;;;;;;;0.10;0.10;;;7.60;99.90;;;;;;5017541;28;20220;-85
2023/03/09 01:08:10;;;;;;;0.10;0.10;;;7.70;99.90;;;;;;5035959;28;20756;-85
2023/03/09 01:10:40;;;;;;;0.10;0.10;;;7.80;99.90;;;;;;5016708;28;20705;-85
2023/03/09 01:13:05;;;;;;;0.10;0.10;;;7.90;99.90;;;;;;5018252;28;20178;-85
2023/03/09 01:15:31;;;;;;;0.10;0.10;;;8.00;99.90;;;;;;5033469;28;20186;-86
2023/03/09 01:17:57;;;;;;;0.10;0.10;;;8.00;99.90;;;;;;5015752;28;20203;-85
2023/03/09 01:20:23;;;;;;;0.10;0.10;;;8.10;99.90;;;;;;5016104;28;20190;-86
2023/03/09 01:22:48;;;;;;;0.10;0.10;;;8.20;99.90;;;;;;5019702;28;20189;-85
2023/03/09 01:25:14;;;;;;;0.10;0.10;;;8.20;99.90;;;;;;5015981;28;20210;-85
2023/03/09 01:27:39;;;;;;;0.10;0.10;;;8.30;99.90;;;;;;5033856;28;20202;-85
2023/03/09 01:30:05;;;;;;;0.00;0.00;;;8.40;99.90;;;;;;5016722;28;20192;-84
2023/03/09 01:32:31;;;;;;;0.10;0.10;;;8.30;99.90;;;;;;5018127;28;20263;-84
2023/03/09 01:34:57;;;;;;;0.10;0.10;;;8.40;99.90;;;;;;5018060;28;20237;-85
2023/03/09 01:37:23;;;;;;;0.10;0.10;;;8.40;99.90;;;;;;5017706;28;20205;-84
2023/03/09 01:39:48;;;;;;;0.10;0.10;;;8.40;99.90;;;;;;5019219;28;20419;-85
2023/03/09 01:42:14;;;;;;;0.10;0.10;;;8.30;99.90;;;;;;5020066;28;20257;-84
2023/03/09 01:44:40;;;;;;;0.10;0.10;;;8.30;99.90;;;;;;5035153;28;20558;-84
2023/03/09 01:47:05;;;;;;;0.10;0.10;;;8.40;99.90;;;;;;5017178;28;20206;-84
2023/03/09 01:49:40;;;;;;;0.10;0.10;;;8.50;99.90;;;;;;5018249;28;20288;-84
2023/03/09 01:52:13;;;;;;;0.03;0.03;;;8.40;99.90;;;;;;5036015;28;20250;-84
2023/03/09 01:54:48;;;;;;;0.10;0.10;;;8.40;99.90;;;;;;5016911;28;20180;-85
2023/03/09 01:57:33;;;;;;;0.10;0.10;;;8.50;99.90;;;;;;5018550;28;20203;-84
2023/03/09 02:00:05;;;;;;;0.10;0.10;;;8.50;99.90;;;;;;5017068;28;20217;-84
2023/03/09 02:02:35;;;;;;;0.10;0.10;;;8.50;99.90;;;;;;5019182;28;20590;-84
2023/03/09 02:05:04;;;;;;;0.10;0.10;;;8.50;99.90;;;;;;5020108;28;20231;-85
2023/03/09 02:07:34;;;;;;;0.10;0.10;;;8.50;99.90;;;;;;5016358;28;20320;-84
2023/03/09 02:10:15;;;;;;;0.10;0.10;;;8.50;99.90;;;;;;5016483;28;20206;-84
2023/03/09 02:12:41;;;;;;;0.10;0.10;;;8.50;99.90;;;;;;5017356;28;20174;-85
2023/03/09 02:15:07;;;;;;;0.10;0.10;;;8.40;99.90;;;;;;5018368;28;20290;-84
2023/03/09 02:17:33;;;;;;;0.10;0.10;;;8.40;99.90;;;;;;5016448;28;20696;-84
2023/03/09 02:20:21;;;;;;;0.10;0.10;;;8.40;99.90;;;;;;5016029;28;20188;-84
2023/03/09 02:22:48;;;;;;;0.10;0.10;;;8.30;99.90;;;;;;5017046;28;20235;-85
2023/03/09 02:25:37;;;;;;;0.10;0.10;;;8.30;99.90;;;;;;5017595;28;20234;-84
2023/03/09 02:28:05;;;;;;;0.07;0.07;;;8.30;99.90;;;;;;5016479;28;20206;-84
2023/03/09 02:30:33;;;;;;;0.10;0.10;;;8.20;99.90;;;;;;5017408;28;21303;-84
2023/03/09 02:33:25;;;;;;;0.10;0.10;;;8.20;99.90;;;;;;5016206;28;20667;-84
2023/03/09 02:35:55;;;;;;;0.10;0.10;;;8.30;99.90;;;;;;5016725;28;20186;-84
2023/03/09 02:38:21;;;;;;;0.10;0.10;;;8.20;99.90;;;;;;5017356;28;20217;-84
2023/03/09 02:40:47;;;;;;;0.10;0.10;;;8.20;99.90;;;;;;5015938;28;20195;-85
2023/03/09 02:43:15;;;;;;;0.10;0.10;;;8.20;99.90;;;;;;5016677;28;20235;-84
2023/03/09 02:45:40;;;;;;;0.07;0.07;;;8.20;99.90;;;;;;5013967;28;20209;-84
2023/03/09 02:48:06;;;;;;;0.10;0.10;;;8.20;99.90;;;;;;5019180;28;20213;-84
2023/03/09 02:50:31;;;;;;;0.10;0.10;;;8.20;99.90;;;;;;5016380;28;20223;-84
2023/03/09 02:52:57;;;;;;;0.10;0.10;;;8.20;99.90;;;;;;5017200;28;20673;-84
2023/03/09 02:55:22;;;;;;;0.10;0.10;;;8.20;99.90;;;;;;5013394;28;20245;-84
2023/03/09 02:57:48;;;;;;;0.10;0.10;;;8.20;99.90;;;;;;5016594;28;20217;-84
2023/03/09 03:00:15;;;;;;;0.10;0.10;;;8.20;99.90;;;;;;5015912;28;20186;-84
2023/03/09 03:02:40;;;;;;;0.10;0.10;;;8.20;99.90;;;;;;5035633;28;20198;-84
2023/03/09 03:05:07;;;;;;;0.10;0.10;;;8.20;99.90;;;;;;5034807;28;20219;-84
2023/03/09 03:07:33;;;;;;;0.10;0.10;;;8.20;99.90;;;;;;5013785;28;20206;-84
2023/03/09 03:09:58;;;;;;;0.10;0.10;;;8.30;99.90;;;;;;5035579;28;20702;-83
2023/03/09 03:12:24;;;;;;;0.10;0.10;;;8.30;99.90;;;;;;5017275;28;20218;-84
2023/03/09 03:14:49;;;;;;;0.10;0.10;;;8.30;99.90;;;;;;5017579;28;20190;-85
2023/03/09 03:17:15;;;;;;;0.10;0.10;;;8.40;99.90;;;;;;5019071;28;20248;-84
2023/03/09 03:19:40;;;;;;;0.10;0.10;;;8.50;99.90;;;;;;5042813;28;20269;-84
2023/03/09 03:22:06;;;;;;;0.10;0.10;;;8.50;99.90;;;;;;5026749;28;20202;-85
2023/03/09 03:24:37;;;;;;;0.10;0.10;;;8.60;99.90;;;;;;5019378;28;20209;-84
2023/03/09 03:27:03;;;;;;;0.10;0.10;;;8.60;99.90;;;;;;5015734;28;20315;-84
2023/03/09 03:29:29;;;;;;;0.10;0.10;;;8.60;99.90;;;;;;5033781;28;20186;-85
2023/03/09 03:31:54;;;;;;;0.10;0.10;;;8.60;99.90;;;;;;5017135;28;20991;-84
2023/03/09 03:34:20;;;;;;;0.10;0.10;;;8.60;99.90;;;;;;5018430;28;20236;-84
2023/03/09 03:36:45;;;;;;;0.10;0.10;;;8.60;99.90;;;;;;5017471;28;20205;-84
2023/03/09 03:39:11;;;;;;;0.63;0.63;;;8.50;99.90;;;;;;5016070;28;20186;-84
2023/03/09 03:41:37;;;;;;;0.10;0.10;;;8.60;99.90;;;;;;5016416;28;20190;-85
2023/03/09 03:44:03;;;;;;;0.10;0.10;;;8.60;99.90;;;;;;5015421;28;20196;-84
2023/03/09 03:46:30;;;;;;;0.10;0.10;;;8.60;99.90;;;;;;5015994;28;20251;-85
2023/03/09 03:48:56;;;;;;;0.10;0.10;;;8.60;99.90;;;;;;5014494;28;20206;-84
2023/03/09 03:51:22;;;;;;;0.10;0.10;;;8.70;99.90;;;;;;5017204;28;20249;-85
2023/03/09 03:53:47;;;;;;;0.03;0.03;;;8.60;99.90;;;;;;5033301;28;20189;-85
2023/03/09 03:56:13;;;;;;;0.07;0.07;;;8.70;99.90;;;;;;5015136;28;20259;-85
2023/03/09 03:58:38;;;;;;;0.10;0.10;;;8.60;99.90;;;;;;5014540;28;20182;-84
2023/03/09 04:01:04;;;;;;;0.10;0.10;;;8.70;99.90;;;;;;5017448;28;20254;-84
2023/03/09 04:03:29;;;;;;;0.10;0.10;;;8.70;99.90;;;;;;5035025;28;20302;-85
2023/03/09 04:05:55;;;;;;;0.10;0.10;;;8.60;99.90;;;;;;5015830;28;20221;-84
2023/03/09 04:08:20;;;;;;;0.10;0.10;;;8.60;99.90;;;;;;5015027;28;20196;-84
2023/03/09 04:10:46;;;;;;;0.07;0.07;;;8.70;99.90;;;;;;5017115;28;20194;-85
2023/03/09 04:13:12;;;;;;;0.00;0.00;;;8.80;99.90;;;;;;5015930;28;20183;-85
2023/03/09 04:15:37;;;;;;;0.10;0.10;;;8.80;99.90;;;;;;5034494;28;20182;-85
2023/03/09 04:18:03;;;;;;;0.10;0.10;;;8.90;99.90;;;;;;5012887;28;20209;-84
2023/03/09 04:20:29;;;;;;;0.10;0.10;;;8.90;99.90;;;;;;5016327;28;20189;-84
2023/03/09 04:22:54;;;;;;;0.10;0.10;;;8.90;99.90;;;;;;5013904;28;20195;-84
2023/03/09 04:25:20;;;;;;;0.10;0.10;;;8.90;99.90;;;;;;5016036;28;20546;-85
2023/03/09 04:27:45;;;;;;;0.07;0.07;;;8.90;99.90;;;;;;5032250;28;20711;-84
2023/03/09 04:30:12;;;;;;;0.10;0.10;;;9.00;99.90;;;;;;5032219;28;20196;-85
2023/03/09 04:32:38;;;;;;;0.10;0.10;;;9.00;99.90;;;;;;5013999;28;20188;-85
2023/03/09 04:35:05;;;;;;;0.10;0.10;;;9.00;99.90;;;;;;5032681;28;20190;-85
2023/03/09 04:37:30;;;;;;;0.10;0.10;;;9.00;99.90;;;;;;5032020;28;20217;-84
2023/03/09 04:39:56;;;;;;;0.10;0.10;;;9.00;99.90;;;;;;5014548;28;20186;-84
2023/03/09 04:42:21;;;;;;;0.10;0.10;;;9.00;99.90;;;;;;5015432;28;20186;-85
2023/03/09 04:44:47;;;;;;;0.10;0.10;;;9.00;99.90;;;;;;5014177;28;20212;-85
2023/03/09 04:47:13;;;;;;;0.10;0.10;;;9.00;99.90;;;;;;5013173;28;20296;-85
2023/03/09 04:49:40;;;;;;;0.10;0.10;;;9.00;99.90;;;;;;5015583;28;20181;-84
2023/03/09 04:52:06;;;;;;;0.10;0.10;;;9.10;99.90;;;;;;5013995;28;20209;-85
2023/03/09 04:54:32;;;;;;;0.10;0.10;;;9.10;99.90;;;;;;5013738;28;20188;-85
2023/03/09 04:56:57;;;;;;;0.10;0.10;;;9.10;99.90;;;;;;5013420;28;20209;-85
2023/03/09 04:59:23;;;;;;;0.03;0.03;;;9.10;99.90;;;;;;5014297;28;20243;-85
2023/03/09 05:01:48;;;;;;;0.10;0.10;;;9.10;99.90;;;;;;5012848;28;20267;-85
2023/03/09 05:04:14;;;;;;;0.10;0.10;;;9.10;99.90;;;;;;5014089;28;20336;-84
2023/03/09 05:06:40;;;;;;;0.10;0.10;;;9.10;99.90;;;;;;5014932;28;20293;-85
2023/03/09 05:09:05;;;;;;;0.10;0.10;;;9.00;99.90;;;;;;5030941;28;20192;-85
2023/03/09 05:11:32;;;;;;;0.10;0.10;;;9.00;99.90;;;;;;5014438;28;20232;-85
2023/03/09 05:13:58;;;;;;;0.10;0.10;;;9.00;99.90;;;;;;5014843;28;20648;-85
2023/03/09 05:16:24;;;;;;;0.10;0.10;;;9.00;99.90;;;;;;5030645;28;20197;-84
2023/03/09 05:18:50;;;;;;;0.10;0.10;;;9.00;99.90;;;;;;5017080;28;20190;-85
2023/03/09 05:21:16;;;;;;;0.10;0.10;;;9.00;99.90;;;;;;5020187;28;20178;-85
2023/03/09 05:23:41;;;;;;;0.10;0.10;;;9.00;99.90;;;;;;5032088;28;20636;-85
2023/03/09 05:26:07;;;;;;;0.10;0.10;;;9.00;99.90;;;;;;5034256;28;20577;-85
2023/03/09 05:28:38;;;;;;;0.10;0.10;;;9.10;99.90;;;;;;5013023;28;20265;-84
2023/03/09 05:31:08;;;;;;;0.10;0.10;;;9.10;99.90;;;;;;5033255;28;20190;-85
2023/03/09 05:33:33;;;;;;;0.10;0.10;;;9.10;99.90;;;;;;5031650;28;20261;-85
2023/03/09 05:35:59;;;;;;;0.10;0.10;;;9.20;99.90;;;;;;5016905;28;20343;-84
2023/03/09 05:38:25;;;;;;;0.10;0.10;;;9.20;99.90;;;;;;5016059;28;20709;-85
2023/03/09 05:40:50;;;;;;;0.10;0.10;;;9.20;99.90;;;;;;5020137;28;20656;-84
2023/03/09 05:43:16;;;;;;;0.10;0.10;;;9.20;99.90;;;;;;5018310;28;20657;-85
2023/03/09 05:45:41;;;;;;;0.10;0.10;;;9.20;99.90;;;;;;5018003;28;20308;-84
2023/03/09 05:48:07;;;;;;;0.10;0.10;;;9.30;99.90;;;;;;5018617;28;20215;-85
2023/03/09 05:50:33;;;;;;;0.10;0.10;;;9.40;99.90;;;;;;5014938;28;20228;-84
2023/03/09 05:52:58;;;;;;;0.10;0.10;;;9.30;99.90;;;;;;5017674;28;20312;-84
2023/03/09 05:55:24;;;;;;;0.10;0.10;;;9.30;99.90;;;;;;5017811;28;20215;-84
2023/03/09 05:57:49;;;;;;;0.10;0.10;;;9.30;99.90;;;;;;5018005;28;20216;-84
2023/03/09 06:00:16;;;;;;;0.10;0.10;;;9.40;99.90;;;;;;5035236;28;20202;-83
2023/03/09 06:02:42;;;;;;;0.10;0.10;;;9.40;99.90;;;;;;5018897;28;20637;-84
2023/03/09 06:05:07;;;;;;;0.10;0.10;;;9.40;99.90;;;;;;5017867;28;20242;-84
2023/03/09 06:07:33;;;;;;;0.10;0.10;;;9.40;99.90;;;;;;5015494;28;20210;-83
2023/03/09 06:09:59;;;;;;;0.10;0.10;;;9.40;99.90;;;;;;5041581;28;20197;-84
2023/03/09 06:12:25;;;;;;;0.10;0.10;;;9.40;99.90;;;;;;5016136;28;20650;-83
2023/03/09 06:14:52;;;;;;;0.10;0.10;;;9.40;99.90;;;;;;5036196;28;20190;-82
2023/03/09 06:17:17;;;;;;;0.10;0.10;;;9.40;99.90;;;;;;5016378;28;20300;-82
2023/03/09 06:19:44;;;;;;;0.10;0.10;;;9.40;99.90;;;;;;5035916;28;20281;-82
2023/03/09 06:22:09;;;;;;;0.10;0.10;;;9.40;99.90;;;;;;5015289;28;20244;-82
2023/03/09 06:24:35;;;;;;;0.00;0.00;;;9.50;99.90;;;;;;5015837;28;20503;-81
2023/03/09 06:27:01;;;;;;;0.10;0.10;;;9.50;99.90;;;;;;5034004;28;20198;-82
2023/03/09 06:29:27;;;;;;;0.10;0.10;;;9.50;99.90;;;;;;5019317;28;20198;-81
2023/03/09 06:31:53;;;;;;;0.10;0.10;;;9.50;99.90;;;;;;5015790;28;20190;-84
2023/03/09 06:34:18;;;;;;;0.10;0.10;;;9.50;99.90;;;;;;5015578;28;20271;-85
2023/03/09 06:36:44;;;;;;;0.00;0.00;;;9.60;99.90;;;;;;5014161;28;20212;-85
2023/03/09 06:39:09;;;;;;;0.10;0.10;;;9.60;99.90;;;;;;5014478;28;20247;-85
2023/03/09 06:41:36;;;;;;;0.07;0.07;;;9.60;99.90;;;;;;5014950;28;20193;-85
2023/03/09 06:44:02;;;;;;;0.10;0.10;;;9.60;99.90;;;;;;5014886;28;20197;-84
2023/03/09 06:46:28;;;;;;;0.10;0.10;;;9.60;99.90;;;;;;5015968;28;20252;-85
2023/03/09 06:48:54;;;;;;;0.10;0.10;;;9.50;99.90;;;;;;5017411;28;20190;-85
2023/03/09 06:51:20;;;;;;;0.10;0.10;;;9.60;99.90;;;;;;5015477;28;20675;-83
2023/03/09 06:53:46;;;;;;;0.10;0.10;;;9.60;99.90;;;;;;5028228;28;20197;-82
2023/03/09 06:56:11;;;;;;;0.10;0.10;;;9.70;99.90;;;;;;5018324;28;20197;-85
2023/03/09 06:58:37;;;;;;;0.10;0.10;;;9.60;99.90;;;;;;5034663;28;20190;-86
2023/03/09 07:01:07;;;;;;;0.10;0.10;;;9.60;99.90;;;;;;5030493;28;20186;-84
2023/03/09 07:03:33;;;;;;;0.10;0.10;;;9.70;99.90;;;;;;5031775;28;20233;-85
2023/03/09 07:05:58;;;;;;;0.10;0.10;;;9.70;99.90;;;;;;5021219;28;20229;-85
2023/03/09 07:08:24;;;;;;;0.10;0.10;;;9.60;99.90;;;;;;5018494;28;20189;-84
2023/03/09 07:10:49;;;;;;;0.10;0.10;;;9.70;99.90;;;;;;5018866;28;20274;-85
2023/03/09 07:13:15;;;;;;;0.10;0.10;;;9.70;99.90;;;;;;5015611;28;20186;-85
2023/03/09 07:15:42;;;;;;;0.10;0.10;;;9.70;99.90;;;;;;5015261;28;20276;-85
2023/03/09 07:18:08;;;;;;;0.10;0.10;;;9.80;99.90;;;;;;5026109;28;20245;-85
2023/03/09 07:20:33;;;;;;;0.10;0.10;;;9.80;99.90;;;;;;5024074;28;20303;-85
2023/03/09 07:22:59;;;;;;;0.10;0.10;;;9.80;99.90;;;;;;5014926;28;21988;-85
2023/03/09 07:25:24;;;;;;;0.10;0.10;;;9.80;99.90;;;;;;5016080;28;20213;-85
2023/03/09 07:27:50;;;;;;;0.10;0.10;;;9.90;99.90;;;;;;5016648;28;20304;-85
2023/03/09 07:30:16;;;;;;;0.10;0.10;;;9.90;99.90;;;;;;5014480;28;20189;-85
2023/03/09 07:32:41;;;;;;;0.10;0.10;;;9.90;99.90;;;;;;5015489;28;20183;-85
2023/03/09 07:35:08;;;;;;;0.00;0.00;;;9.90;99.90;;;;;;5014348;28;20255;-83
2023/03/09 07:37:33;;;;;;;0.10;0.10;;;9.90;99.90;;;;;;5007090;28;20214;-83
2023/03/09 07:39:59;;;;;;;0.10;0.10;;;9.90;99.90;;;;;;5014456;28;20304;-83
2023/03/09 07:42:24;;;;;;;0.07;0.07;;;9.90;99.90;;;;;;5016533;28;20212;-83
2023/03/09 07:44:50;;;;;;;0.10;0.10;;;9.90;99.90;;;;;;5012461;28;20218;-83
2023/03/09 07:47:17;;;;;;;0.10;0.10;;;9.90;99.90;;;;;;5015032;28;20206;-83
2023/03/09 07:49:42;;;;;;;0.10;0.10;;;9.90;99.90;;;;;;5013362;28;20187;-83
2023/03/09 07:52:08;;;;;;;0.10;0.10;;;10.00;99.90;;;;;;5011078;28;20503;-83
2023/03/09 07:54:34;;;;;;;0.00;0.00;;;10.00;99.90;;;;;;5032353;28;20186;-81
2023/03/09 07:57:00;;;;;;;0.10;0.10;;;10.00;99.90;;;;;;5010941;28;20206;-83
2023/03/09 07:59:26;;;;;;;0.00;0.00;;;10.00;99.90;;;;;;5013165;28;20656;-82
2023/03/09 08:01:52;;;;;;;0.10;0.10;;;10.00;99.90;;;;;;5016619;28;20360;-83
2023/03/09 08:04:17;;;;;;;0.10;0.10;;;10.10;99.90;;;;;;5030620;28;20186;-82
2023/03/09 08:06:43;;;;;;;0.10;0.10;;;10.20;99.90;;;;;;5019061;28;20618;-85
2023/03/09 08:09:12;;;;;;;0.10;0.10;;;10.20;99.90;;;;;;5014587;28;20272;-85
2023/03/09 08:11:38;;;;;;;0.00;0.00;;;10.30;99.90;;;;;;5032301;28;20197;-85
2023/03/09 08:14:04;;;;;;;0.10;0.10;;;10.30;99.90;;;;;;5030923;28;20182;-85
2023/03/09 08:16:29;;;;;;;0.10;0.10;;;10.30;99.90;;;;;;5031224;28;20698;-84
2023/03/09 08:18:55;;;;;;;0.10;0.10;;;10.30;99.90;;;;;;5032596;28;20178;-85
2023/03/09 08:21:21;;;;;;;0.10;0.10;;;10.40;99.90;;;;;;5014228;28;20185;-84
2023/03/09 08:23:47;;;;;;;0.10;0.10;;;10.40;99.90;;;;;;5015930;28;20177;-85
2023/03/09 08:26:15;;;;;;;0.10;0.10;;;10.50;99.90;;;;;;5033553;28;20209;-85
2023/03/09 08:28:42;;;;;;;0.10;0.10;;;10.50;99.90;;;;;;5034835;28;21112;-85
2023/03/09 08:31:12;;;;;;;0.10;0.10;;;10.50;99.90;;;;;;5016190;28;20182;-84
2023/03/09 08:33:38;;;;;;;0.10;0.10;;;10.50;99.90;;;;;;5018667;28;21006;-84
2023/03/09 08:36:15;;;;;;;0.10;0.10;;;10.50;99.90;;;;;;5016408;28;20189;-86
2023/03/09 08:38:42;;;;;;;0.10;0.10;;;10.60;99.90;;;;;;5015381;28;20181;-84
2023/03/09 08:41:08;;;;;;;0.10;0.10;;;10.60;99.90;;;;;;5016086;28;20679;-84
2023/03/09 08:43:33;;;;;;;0.00;0.00;;;10.60;99.90;;;;;;5018001;28;20269;-85
2023/03/09 08:45:59;;;;;;;0.10;0.10;;;10.70;99.90;;;;;;5016722;28;20296;-86
2023/03/09 08:48:25;;;;;;;0.10;0.10;;;10.70;99.90;;;;;;5015720;28;20186;-84
2023/03/09 08:50:50;;;;;;;0.10;0.10;;;10.80;99.90;;;;;;5015482;28;20664;-84
2023/03/09 08:53:18;;;;;;;0.10;0.10;;;10.80;99.90;;;;;;5032481;28;21090;-85
2023/03/09 08:55:43;;;;;;;0.00;0.00;;;11.00;99.90;;;;;;5017059;28;21294;-85
2023/03/09 08:58:09;;;;;;;0.10;0.10;;;11.20;99.90;;;;;;5015837;28;20209;-86
2023/03/09 09:00:35;;;;;;;0.10;0.10;;;11.10;99.90;;;;;;5033002;28;20189;-85
2023/03/09 09:03:00;;;;;;;0.10;0.10;;;11.30;99.90;;;;;;5013642;28;20189;-85
2023/03/09 09:05:26;;;;;;;0.10;0.10;;;11.30;99.90;;;;;;5014421;28;20210;-84
2023/03/09 09:07:52;;;;;;;0.10;0.10;;;11.30;99.90;;;;;;5037729;28;20199;-85
2023/03/09 09:10:17;;;;;;;0.10;0.10;;;11.20;99.90;;;;;;5035488;28;20201;-83
2023/03/09 09:12:43;;;;;;;0.10;0.10;;;11.30;99.90;;;;;;5034863;28;20607;-83
2023/03/09 09:15:09;;;;;;;0.10;0.10;;;11.40;99.90;;;;;;5037435;28;20256;-83
2023/03/09 09:17:36;;;;;;;0.10;0.10;;;11.40;99.90;;;;;;5030208;28;20213;-84
2023/03/09 09:20:03;;;;;;;0.10;0.10;;;11.50;99.90;;;;;;5028246;28;20183;-83
2023/03/09 09:22:28;;;;;;;0.10;0.10;;;11.50;99.90;;;;;;5027683;28;20190;-84
2023/03/09 09:24:54;;;;;;;0.03;0.03;;;11.50;99.90;;;;;;5020857;28;20205;-83
2023/03/09 09:27:19;;;;;;;0.10;0.10;;;11.40;99.90;;;;;;5017378;28;20564;-84
2023/03/09 09:29:45;;;;;;;0.10;0.10;;;11.40;99.90;;;;;;5018838;28;20193;-84
2023/03/09 09:32:11;;;;;;;0.10;0.10;;;11.30;99.90;;;;;;5020371;28;20269;-84
2023/03/09 09:34:37;;;;;;;0.10;0.10;;;11.30;99.90;;;;;;5019602;28;20193;-84
2023/03/09 09:37:05;;;;;;;0.10;0.10;;;11.40;99.90;;;;;;5019864;28;20726;-81
2023/03/09 09:39:32;;;;;;;0.10;0.10;;;11.40;99.90;;;;;;5038384;28;20187;-82
2023/03/09 09:42:25;;;;;;;0.07;0.07;;;11.40;99.90;;;;;;5041049;28;20182;-82
2023/03/09 09:44:53;;;;;;;0.10;0.10;;;11.50;99.90;;;;;;5023276;28;20210;-81
2023/03/09 09:47:23;;;;;;;0.10;0.10;;;11.60;99.90;;;;;;5020351;28;20675;-82
2023/03/09 09:49:51;;;;;;;0.10;0.10;;;11.80;99.90;;;;;;5038861;28;20189;-87
2023/03/09 09:52:28;;;;;;;0.10;0.10;;;11.70;99.90;;;;;;5021926;28;20197;-82
2023/03/09 09:55:19;;;;;;;0.00;0.00;;;11.80;99.90;;;;;;5037722;28;20190;-81
2023/03/09 09:57:51;;;;;;;0.03;0.03;;;11.90;99.90;;;;;;5022544;28;20222;-82
2023/03/09 10:00:26;;;;;;;0.10;0.10;;;11.90;99.90;;;;;;5015975;28;20186;-82
2023/03/09 10:03:22;;;;;;;0.00;0.00;;;11.80;99.90;;;;;;5019409;28;20214;-82
2023/03/09 10:06:06;;;;;;;0.10;0.10;;;11.90;99.90;;;;;;5019596;28;22025;-82
2023/03/09 10:08:49;;;;;;;0.10;0.10;;;12.00;99.90;;;;;;5018602;28;20292;-82
2023/03/09 10:11:26;;;;;;;0.10;0.10;;;12.00;99.90;;;;;;5018862;28;20298;-82
2023/03/09 10:14:18;;;;;;;0.10;0.10;;;11.90;99.90;;;;;;5037081;28;20551;-81
2023/03/09 10:16:52;;;;;;;0.10;0.10;;;11.90;99.90;;;;;;5039370;28;20569;-82
2023/03/09 10:19:31;;;;;;;0.10;0.10;;;11.90;99.90;;;;;;5033639;28;21530;-82
2023/03/09 10:21:59;;;;;;;0.10;0.10;;;11.90;99.90;;;;;;5036069;28;20655;-81
2023/03/09 10:24:26;;;;;;;0.10;0.10;;;11.90;99.90;;;;;;5035241;28;20219;-82
2023/03/09 10:27:14;;;;;;;0.10;0.10;;;12.00;99.90;;;;;;5020143;28;20201;-82
2023/03/09 10:29:43;;;;;;;0.10;0.10;;;12.10;99.90;;;;;;5028154;28;20676;-82
2023/03/09 10:32:19;;;;;;;0.10;0.10;;;12.10;99.90;;;;;;5020891;28;20197;-82
2023/03/09 10:35:13;;;;;;;0.10;0.10;;;12.20;99.90;;;;;;5024145;28;20186;-82
2023/03/09 10:37:39;;;;;;;0.10;0.10;;;12.30;99.90;;;;;;5039732;28;20205;-83
2023/03/09 10:40:22;;;;;;;0.10;0.10;;;12.40;99.90;;;;;;5022751;28;20201;-82
2023/03/09 10:42:47;;;;;;;0.10;0.10;;;12.40;99.90;;;;;;5024878;28;20182;-82
2023/03/09 10:45:13;;;;;;;0.10;0.10;;;12.50;99.90;;;;;;5037185;28;20228;-82
2023/03/09 10:47:50;;;;;;;0.10;0.10;;;12.50;99.90;;;;;;5039042;28;20209;-82
2023/03/09 10:50:17;;;;;;;0.10;0.10;;;12.60;99.90;;;;;;5036040;28;20190;-82
2023/03/09 10:52:42;;;;;;;0.10;0.10;;;12.70;99.90;;;;;;5037404;28;20206;-81
2023/03/09 10:55:35;;;;;;;0.10;0.10;;;12.90;99.90;;;;;;5032873;28;20236;-82
2023/03/09 10:58:13;;;;;;;0.10;0.10;;;12.90;99.90;;;;;;5047583;28;20221;-82
2023/03/09 11:00:55;;;;;;;0.10;0.10;;;12.80;99.90;;;;;;5047416;28;20547;-84
2023/03/09 11:03:30;;;;;;;0.10;0.10;;;12.60;99.90;;;;;;5035918;28;20580;-84
2023/03/09 11:06:26;;;;;;;0.10;0.10;;;12.50;99.90;;;;;;5034475;28;20208;-84
2023/03/09 11:09:14;;;;;;;0.10;0.10;;;12.50;99.90;;;;;;5018712;28;20251;-84
2023/03/09 11:11:41;;;;;;;0.03;0.03;;;12.40;99.90;;;;;;5018047;28;20655;-84
2023/03/09 11:14:26;;;;;;;0.00;0.00;;;12.40;99.90;;;;;;5015774;28;20660;-84
2023/03/09 11:17:01;;;;;;;0.00;0.00;;;12.50;99.90;;;;;;5018058;28;20304;-84
2023/03/09 11:19:28;;;;;;;0.10;0.10;;;12.60;99.90;;;;;;5024599;28;20749;-84
2023/03/09 11:21:56;;;;;;;0.10;0.10;;;12.80;99.90;;;;;;5037217;28;20185;-85
2023/03/09 11:24:27;;;;;;;0.10;0.10;;;13.00;99.90;;;;;;5034291;28;20650;-84
2023/03/09 11:27:07;;;;;;;0.10;0.10;;;12.90;99.90;;;;;;5017487;28;20211;-84
2023/03/09 11:29:54;;;;;;;0.10;0.10;;;12.80;99.90;;;;;;5018400;28;20538;-84
2023/03/09 11:32:20;;;;;;;0.10;0.10;;;12.70;99.90;;;;;;5035365;28;20532;-84
2023/03/09 11:34:47;;;;;;;0.10;0.10;;;12.60;99.90;;;;;;5014675;28;20192;-84
2023/03/09 11:37:16;;;;;;;0.10;0.10;;;12.60;99.90;;;;;;5025213;28;20241;-84
2023/03/09 11:39:59;;;;;;;0.10;0.10;;;12.50;99.90;;;;;;5039229;28;20178;-84
2023/03/09 11:42:53;;;;;;;0.10;0.10;;;12.50;99.90;;;;;;5023673;28;20281;-83
2023/03/09 11:45:22;;;;;;;0.10;0.10;;;12.50;99.90;;;;;;5027226;28;20314;-81
2023/03/09 11:47:59;;;;;;;0.10;0.10;;;12.70;99.90;;;;;;5028117;28;20202;-81
2023/03/09 11:50:29;;;;;;;0.10;0.10;;;12.60;99.90;;;;;;5026271;28;20254;-81
2023/03/09 11:53:13;;;;;;;0.10;0.10;;;12.60;99.90;;;;;;5023013;28;20197;-81
2023/03/09 11:55:43;;;;;;;0.10;0.10;;;12.60;99.90;;;;;;5020996;28;20190;-81
2023/03/09 11:58:13;;;;;;;0.10;0.10;;;12.60;99.90;;;;;;5040173;28;20579;-80
2023/03/09 12:00:45;;;;;;;0.10;0.10;;;12.70;99.90;;;;;;5021184;28;20185;-80
2023/03/09 12:03:16;;;;;;;0.10;0.10;;;12.70;99.90;;;;;;5038565;28;20297;-81
2023/03/09 12:05:46;;;;;;;0.23;0.23;;;12.90;99.90;;;;;;5038787;28;20237;-81
2023/03/09 12:08:21;;;;;;;0.10;0.10;;;13.00;99.90;;;;;;5039392;28;20206;-81
2023/03/09 12:10:52;;;;;;;0.10;0.10;;;13.00;99.90;;;;;;5040180;28;20181;-81
2023/03/09 12:13:35;;;;;;;0.10;0.10;;;12.90;99.90;;;;;;5038083;28;20716;-81
2023/03/09 12:16:05;;;;;;;0.10;0.10;;;12.90;99.90;;;;;;5018306;28;20656;-81
2023/03/09 12:18:55;;;;;;;0.10;0.10;;;13.00;99.90;;;;;;5035873;28;20194;-80
2023/03/09 12:21:32;;;;;;;0.10;0.10;;;13.10;99.90;;;;;;5021479;28;20668;-81
2023/03/09 12:24:01;;;;;;;0.00;0.00;;;13.20;99.90;;;;;;5020346;28;20228;-81
2023/03/09 12:26:33;;;;;;;0.00;0.00;;;13.10;99.90;;;;;;5027356;28;20218;-81
2023/03/09 12:29:19;;;;;;;0.10;0.10;;;13.00;99.90;;;;;;5019666;28;20275;-81
2023/03/09 12:32:14;;;;;;;0.10;0.10;;;13.00;99.90;;;;;;5020800;28;20949;-81
2023/03/09 12:34:41;;;;;;;0.10;0.10;;;13.00;99.90;;;;;;5037369;28;20195;-81
2023/03/09 12:37:35;;;;;;;0.10;0.10;;;12.90;99.90;;;;;;5037611;28;20632;-81
2023/03/09 12:40:00;;;;;;;0.10;0.10;;;12.90;99.90;;;;;;5034599;28;20212;-82
2023/03/09 12:42:37;;;;;;;0.10;0.10;;;13.00;99.90;;;;;;5020972;28;20281;-82
2023/03/09 12:45:10;;;;;;;0.10;0.10;;;13.10;99.90;;;;;;5021748;28;20277;-82
2023/03/09 12:47:54;;;;;;;0.03;0.03;;;13.10;99.90;;;;;;5024889;28;21037;-81
2023/03/09 12:50:20;;;;;;;0.10;0.10;;;13.10;99.90;;;;;;5024145;28;20204;-81
2023/03/09 12:53:20;;;;;;;0.10;0.10;;;13.20;99.90;;;;;;5042484;28;20191;-82
2023/03/09 12:55:59;;;;;;;0.10;0.10;;;13.20;99.90;;;;;;5021872;28;20263;-81
2023/03/09 12:58:25;;;;;;;0.10;0.10;;;13.20;99.90;;;;;;5022815;28;20185;-82
2023/03/09 13:00:52;;;;;;;0.10;0.10;;;13.20;99.90;;;;;;5041118;28;20187;-83
2023/03/09 13:03:31;;;;;;;0.10;0.10;;;13.40;99.90;;;;;;5040803;28;20180;-83